Metar GG30 METAR message from awiacja.imgw.pl Metar G30 EPKK METAR EPKK 201530Z 21004KT 9999 BKN048 04/01 Q1022 =